Flight Track Log - Related Links

Times and Time Zones

All times are in EDT time to prevent confusion due to time zone crossing. See the DAL268 flight status page for this flight to view local times or setup timezone preferences in your user account.

Time Position Orientation Groundspeed Altitude Reporting Facility
EDT Latitude Longitude Course Direction KTS MPH feet Rate Location/Type
Wed 14:19:00 37.6160 -122.3820 North 13 15  Level FlightAware ADS-B
Wed 14:19:56 37.6160 -122.3810 90° East 13 15 56 Level FlightAware ADS-B
Wed 14:22:00 37.7969 -122.1864 38° Northeast  Level FlightAware Approximate
Wed 14:23:00 37.8885 -122.0948 38° Northeast  Level FlightAware Approximate
Wed 14:23:42 37.6140 -122.3810 38° Northeast 26 30  Level FlightAware ADS-B
Wed 14:24:07 37.6120 -122.3830 218° Southwest 26 30 118 Level FlightAware ADS-B
Wed 14:25:18 37.6090 -122.3840 195° South 16 18 130 Level FlightAware ADS-B
Wed 14:26:13 37.6070 -122.3830 158° South 28 32 189 Level FlightAware ADS-B
Wed 14:26:23 37.6060 -122.3830 180° South 28 32 288 Level FlightAware ADS-B
Wed 14:27:00 37.6060 -122.3810 90° East 21 24 319 Level FlightAware ADS-B
Wed 14:27:24 37.6100 -122.3780 31° Northeast 94 108 526 Level FlightAware ADS-B
Wed 14:27:47 37.6245 -122.3690 26° Northeast 171 197 909 Level FlightAware ADS-B
Wed 14:27:57 37.6316 -122.3640 29° Northeast 170 196 500 2,857 Climbing FlightAware ADS-B
Wed 14:28:08 37.6380 -122.3570 41° Northeast 175 201 1,000 2,526 Climbing FlightAware ADS-B
Wed 14:28:16 37.6425 -122.3510 47° Northeast 182 209 1,300 1,500 Climbing FlightAware ADS-B
Wed 14:28:28 37.6495 -122.3410 49° Northeast 202 232 1,500 1,286 Climbing FlightAware ADS-B
Wed 14:28:44 37.6613 -122.3260 45° Northeast 226 260 1,900 2,063 Climbing FlightAware ADS-B
Wed 14:29:00 37.6734 -122.3100 46° Northeast 240 276 2,600 2,516 Climbing FlightAware ADS-B
Wed 14:29:15 37.6853 -122.2940 47° Northeast 252 290 3,200 2,526 Climbing FlightAware ADS-B
Wed 14:29:19 37.6888 -122.2900 42° Northeast 255 293 3,400 2,571 Climbing FlightAware ADS-B
Wed 14:29:22 37.6915 -122.2870 41° Northeast 259 298 3,500 2,500 Climbing FlightAware ADS-B
Wed 14:29:43 37.7114 -122.2670 38° Northeast 269 310 4,400 2,757 Climbing FlightAware ADS-B
Wed 14:29:59 37.7271 -122.2520 37° Northeast 272 313 5,200 2,933 Climbing FlightAware ADS-B
Wed 14:30:28 37.7562 -122.2230 38° Northeast 275 316 6,600 2,571 Climbing FlightAware ADS-B
Wed 14:30:48 37.7769 -122.2030 37° Northeast 286 329 7,300 2,550 Climbing FlightAware ADS-B
Wed 14:31:08 37.7995 -122.1820 36° Northeast 294 338 8,300 3,000 Climbing FlightAware ADS-B
Wed 14:31:24 37.8158 -122.1660 38° Northeast 294 338 9,100 2,710 Climbing FlightAware ADS-B
Wed 14:31:39 37.8324 -122.1500 37° Northeast 300 345 9,700 1,826 Climbing FlightAware ADS-B
Wed 14:32:10 37.8680 -122.1150 38° Northeast 327 376 10,500 1,258 Climbing FlightAware ADS-B
Wed 14:32:41 37.9075 -122.0760 38° Northeast 362 417 11,000 1,065 Climbing FlightAware ADS-B
Wed 14:33:12 37.9502 -122.0350 37° Northeast 391 450 11,600 1,333 Climbing FlightAware ADS-B
Wed 14:33:44 37.9981 -121.9880 38° Northeast 399 459 12,400 1,742 Climbing FlightAware ADS-B
Wed 14:34:14 38.0449 -121.9430 37° Northeast 417 480 13,400 2,000 Climbing FlightAware ADS-B
Wed 14:35:05 38.1230 -121.8670 37° Northeast 430 495 15,100 1,918 Climbing FlightAware ADS-B
Wed 14:35:51 38.1970 -121.7940 38° Northeast 442 509 16,500 1,725 Climbing FlightAware ADS-B
Wed 14:36:25 38.2520 -121.7400 38° Northeast 451 519 17,400 1,680 Climbing FlightAware ADS-B
Wed 14:37:06 38.3180 -121.6750 38° Northeast 458 527 18,600 1,744 Climbing FlightAware ADS-B
Wed 14:37:51 38.3970 -121.5980 37° Northeast 466 536 19,900 1,704 Climbing FlightAware ADS-B
Wed 14:38:27 38.4550 -121.5290 43° Northeast 470 541 20,900 1,583 Climbing FlightAware ADS-B
Wed 14:39:03 38.5030 -121.4510 52° Northeast 476 548 21,800 1,575 Climbing FlightAware ADS-B
Wed 14:39:47 38.5600 -121.3530 53° Northeast 483 556 23,000 1,432 Climbing FlightAware ADS-B
Wed 14:40:31 38.6190 -121.2510 53° Northeast 491 565 23,900 1,256 Climbing FlightAware ADS-B
Wed 14:41:13 38.6770 -121.1510 53° Northeast 499 574 24,800 1,143 Climbing FlightAware ADS-B
Wed 14:41:55 38.7340 -121.0510 54° Northeast 510 587 25,500 1,125 Climbing FlightAware ADS-B
Wed 14:42:33 38.7880 -120.9580 53° Northeast 515 593 26,300 1,143 Climbing FlightAware ADS-B
Wed 14:43:19 38.8530 -120.8450 54° Northeast 520 598 27,100 1,186 Climbing FlightAware ADS-B
Wed 14:43:59 38.9110 -120.7450 53° Northeast 522 601 28,000 1,463 Climbing FlightAware ADS-B
Wed 14:44:41 38.9710 -120.6410 53° Northeast 519 597 29,100 1,605 Climbing FlightAware ADS-B
Wed 14:45:25 39.0340 -120.5320 53° Northeast 514 592 30,300 1,500 Climbing FlightAware ADS-B
Wed 14:46:05 39.0910 -120.4330 53° Northeast 512 589 31,200 1,350 Climbing FlightAware ADS-B
Wed 14:46:45 39.1470 -120.3360 53° Northeast 512 589 32,100 1,200 Climbing FlightAware ADS-B
Wed 14:47:45 39.2310 -120.1880 54° Northeast 514 592 33,200 1,140 Climbing FlightAware ADS-B
Wed 14:48:25 39.2870 -120.0900 54° Northeast 515 593 34,000 1,024 Climbing FlightAware ADS-B
Wed 14:49:07 39.3460 -119.9860 54° Northeast 517 595 34,600 714 Climbing FlightAware ADS-B
Wed 14:49:49 39.4050 -119.8810 54° Northeast 522 601 35,000 308 Climbing FlightAware ADS-B
Wed 14:50:25 39.4570 -119.7890 54° Northeast 521 600 35,000  Level FlightAware ADS-B
Wed 14:51:06 39.5140 -119.6870 54° Northeast 520 598 35,000  Level FlightAware ADS-B
Wed 14:51:51 39.5770 -119.5740 54° Northeast 520 598 35,000  Level FlightAware ADS-B
Wed 14:52:23 39.6220 -119.4930 54° Northeast 521 600 35,000 237 Level FlightAware ADS-B
Wed 14:53:07 39.6850 -119.3800 54° Northeast 523 602 35,300 585 Climbing FlightAware ADS-B
Wed 14:53:45 39.7380 -119.2840 54° Northeast 522 601 35,800 951 Climbing FlightAware ADS-B
Wed 14:54:29 39.7990 -119.1740 54° Northeast 518 596 36,600 818 Climbing FlightAware ADS-B
Wed 14:55:13 39.8610 -119.0610 54° Northeast 520 598 37,000 279 Climbing FlightAware ADS-B
Wed 14:55:55 39.9210 -118.9530 54° Northeast 519 597 37,000  Level FlightAware ADS-B
Wed 14:56:35 39.9760 -118.8520 55° Northeast 521 600 37,000  Level FlightAware ADS-B
Wed 14:57:19 40.0380 -118.7380 55° Northeast 522 601 37,000  Level FlightAware ADS-B
Wed 14:57:59 40.0930 -118.6380 54° Northeast 523 602 37,000  Level FlightAware ADS-B
Wed 14:58:44 40.1420 -118.5160 62° Northeast 514 592 37,000  Level FlightAware ADS-B
Wed 14:59:24 40.1750 -118.4000 70° East 513 590 37,000  Level FlightAware ADS-B
Wed 15:00:17 40.2142 -118.2542 70° East 512 589 37,000  Level Salt Lake Center
Wed 15:00:51 40.2358 -118.1747 70° East 512 589 37,000  Level Oakland Center
Wed 15:01:53 40.2911 -117.9725 70° East 512 589 37,000  Level Oakland Center
Wed 15:02:54 40.3361 -117.8036 71° East 513 590 37,000  Level Oakland Center
Wed 15:03:56 40.3817 -117.6361 70° East 511 588 37,000  Level Oakland Center
Wed 15:04:57 40.4339 -117.4378 71° East 512 589 37,000  Level Oakland Center
Wed 15:05:27 40.4564 -117.3544 70° East 510 587 37,000  Level Salt Lake Center
Wed 15:06:29 40.5014 -117.1856 71° East 509 586 37,000  Level Salt Lake Center
Wed 15:11:49 40.8297 -116.2530 71° East 515 593 37,000  Level FlightAware ADS-B
Wed 15:12:20 40.8634 -116.1650 63° Northeast 516 594 37,000  Level FlightAware ADS-B
Wed 15:13:10 40.9168 -116.0250 63° Northeast 517 595 37,000  Level FlightAware ADS-B
Wed 15:13:42 40.9512 -115.9350 63° Northeast 517 595 37,000  Level FlightAware ADS-B
Wed 15:14:41 41.0142 -115.7690 63° Northeast 518 596 37,000  Level FlightAware ADS-B
Wed 15:15:16 41.0516 -115.6700 63° Northeast 518 596 37,000  Level FlightAware ADS-B
Wed 15:16:20 41.1203 -115.4880 63° Northeast 518 596 37,000  Level FlightAware ADS-B
Wed 15:17:03 41.1656 -115.3660 64° Northeast 517 595 37,000  Level FlightAware ADS-B
Wed 15:17:33 41.1974 -115.2810 64° Northeast 517 595 37,000  Level FlightAware ADS-B
Wed 15:18:00 41.2258 -115.2040 64° Northeast 518 596 37,000  Level FlightAware ADS-B
Wed 15:18:27 41.2546 -115.1270 64° Northeast 518 596 37,000  Level FlightAware ADS-B
Wed 15:18:58 41.2879 -115.0370 64° Northeast 517 595 37,000  Level FlightAware ADS-B
Wed 15:19:44 41.3361 -114.9060 64° Northeast 517 595 37,000  Level FlightAware ADS-B
Wed 15:20:41 41.3958 -114.7430 64° Northeast 517 595 37,000  Level FlightAware ADS-B
Wed 15:21:28 41.4440 -114.6110 64° Northeast 517 595 37,000  Level FlightAware ADS-B
Wed 15:21:58 41.4752 -114.5250 64° Northeast 514 592 37,000  Level FlightAware ADS-B
Wed 15:22:29 41.5064 -114.4390 64° Northeast 512 589 37,000  Level FlightAware ADS-B
Wed 15:22:59 41.5374 -114.3530 64° Northeast 511 588 37,000  Level FlightAware ADS-B
Wed 15:23:29 41.5683 -114.2670 64° Northeast 511 588 37,000  Level FlightAware ADS-B
Wed 15:23:59 41.5988 -114.1820 64° Northeast 511 588 37,000  Level FlightAware ADS-B
Wed 15:24:31 41.6316 -114.0900 64° Northeast 509 586 37,000  Level FlightAware ADS-B
Wed 15:25:06 41.6650 -113.9960 65° Northeast 509 586 37,000  Level FlightAware ADS-B
Wed 15:25:45 41.7060 -113.8810 64° Northeast 509 586 37,000  Level FlightAware ADS-B
Wed 15:26:15 41.7365 -113.7950 65° Northeast 509 586 37,000  Level FlightAware ADS-B
Wed 15:26:49 41.7699 -113.7000 65° Northeast 508 585 37,000  Level FlightAware ADS-B
Wed 15:27:19 41.8003 -113.6140 65° Northeast 508 585 37,000  Level FlightAware ADS-B
Wed 15:27:53 41.8334 -113.5190 65° Northeast 507 583 37,000  Level FlightAware ADS-B
Wed 15:28:44 41.8840 -113.3730 65° Northeast 506 582 37,000  Level FlightAware ADS-B
Wed 15:28:51 41.8910 -113.3540 64° Northeast 506 582 37,000  Level FlightAware ADS-B
Wed 15:29:24 41.9240 -113.2590 65° Northeast 506 582 37,000  Level FlightAware ADS-B
Wed 15:30:05 41.9638 -113.1440 65° Northeast 507 583 37,000  Level FlightAware ADS-B
Wed 15:30:55 42.0130 -113.0010 65° Northeast 507 583 37,000  Level FlightAware ADS-B
Wed 15:31:32 42.0490 -112.8950 65° Northeast 506 582 37,000  Level FlightAware ADS-B
Wed 15:32:11 42.0871 -112.7840 65° Northeast 506 582 37,000  Level FlightAware ADS-B
Wed 15:32:45 42.1202 -112.6870 65° Northeast 507 583 37,000  Level FlightAware ADS-B
Wed 15:33:33 42.1672 -112.5480 65° Northeast 507 583 37,000  Level FlightAware ADS-B
Wed 15:34:30 42.2216 -112.3860 66° East 506 582 37,000  Level FlightAware ADS-B
Wed 15:35:36 42.2820 -112.2000 66° East 506 582 37,000  Level FlightAware ADS-B
Wed 15:35:54 42.3004 -112.1440 66° East 507 583 37,000  Level FlightAware ADS-B
Wed 15:36:27 42.3320 -112.0460 66° East 506 582 37,000  Level FlightAware ADS-B
Wed 15:37:00 42.3625 -111.9520 66° East 508 585 37,000  Level FlightAware ADS-B
Wed 15:37:30 42.3912 -111.8630 66° East 508 585 37,000  Level FlightAware ADS-B
Wed 15:38:02 42.4211 -111.7700 66° East 508 585 37,000  Level FlightAware ADS-B
Wed 15:38:35 42.4512 -111.6760 67° East 507 583 37,000  Level FlightAware ADS-B
Wed 15:39:05 42.4796 -111.5870 67° East 505 581 37,000  Level FlightAware ADS-B
Wed 15:39:41 42.5126 -111.4830 67° East 504 580 37,000  Level FlightAware ADS-B
Wed 15:40:30 42.5560 -111.3450 67° East 502 578 37,000  Level FlightAware ADS-B
Wed 15:41:07 42.5860 -111.2550 66° East 502 578 37,000  Level FlightAware ADS-B
Wed 15:41:37 42.6097 -111.1756 66° East 500 575 37,000  Level Salt Lake Center
Wed 15:42:39 42.6639 -111.0019 67° East 500 575 37,000  Level Salt Lake Center
Wed 15:43:41 42.7211 -110.8175 67° East 502 578 37,000  Level Salt Lake Center
Wed 15:44:43 42.7744 -110.6419 67° East 504 580 37,000  Level Salt Lake Center
Wed 15:45:45 42.8306 -110.4622 67° East 495 570 37,000  Level Salt Lake Center
Wed 15:46:47 42.8903 -110.2667 67° East 499 574 37,000  Level Salt Lake Center
Wed 15:48:00 42.9646 -109.9723 68° East  Level FlightAware Approximate
Wed 15:48:52 42.9992 -109.9033 68° East 499 574 37,000  Level Salt Lake Center
Wed 15:49:54 43.0514 -109.7306 67° East 495 570 37,000  Level Salt Lake Center
Wed 15:50:56 43.1039 -109.5567 67° East 496 571 37,000  Level Salt Lake Center
Wed 15:51:58 43.1536 -109.3836 68° East 494 568 37,000  Level Salt Lake Center
Wed 15:53:00 43.2050 -109.2100 68° East 494 568 37,000  Level Salt Lake Center
Wed 15:54:02 43.2653 -109.0006 68° East 494 568 37,000  Level Salt Lake Center
Wed 15:55:04 43.3142 -108.8244 69° East 496 571 37,000  Level Salt Lake Center
Wed 15:56:06 43.3639 -108.6517 68° East 490 564 37,000  Level Salt Lake Center
Wed 15:57:08 43.4131 -108.4775 69° East 491 565 37,000  Level Salt Lake Center
Wed 15:58:10 43.4603 -108.3033 69° East 488 562 37,000  Level Salt Lake Center
Wed 15:59:12 43.4844 -108.1192 80° East 491 565 37,000  Level Salt Lake Center
Wed 16:00:14 43.5111 -107.8978 80° East 491 565 37,000  Level Salt Lake Center
Wed 16:01:16 43.5319 -107.7125 81° East 494 568 37,000  Level Salt Lake Center
Wed 16:02:18 43.5522 -107.5306 81° East 486 559 37,000  Level Salt Lake Center
Wed 16:03:20 43.5739 -107.3478 81° East 486 559 37,000  Level Salt Lake Center
Wed 16:04:22 43.5939 -107.1642 81° East 486 559 37,000  Level Salt Lake Center
Wed 16:04:56 43.6075 -107.0519 80° East 489 563 37,000  Level Denver Center
Wed 16:05:58 43.6292 -106.8492 82° East 484 557 37,000  Level Denver Center
Wed 16:07:00 43.6481 -106.6719 82° East 486 559 37,000  Level Denver Center
Wed 16:08:02 43.6697 -106.4653 82° East 485 558 37,000  Level Denver Center
Wed 16:09:05 43.6892 -106.2881 81° East 486 559 37,000  Level Denver Center
Wed 16:10:07 43.7097 -106.0811 82° East 486 559 37,000  Level Denver Center
Wed 16:11:09 43.7269 -105.9042 82° East 486 559 37,000  Level Denver Center
Wed 16:12:11 43.7489 -105.6981 82° East 485 558 37,000  Level Denver Center
Wed 16:13:13 43.7669 -105.5211 82° East 485 558 37,000  Level Denver Center
Wed 16:14:15 43.7853 -105.3167 83° East 481 554 37,000  Level Denver Center
Wed 16:15:17 43.8014 -105.1428 83° East 477 549 37,000  Level Denver Center
Wed 16:16:19 43.8206 -104.9383 83° East 478 550 37,000  Level Denver Center
Wed 16:17:21 43.8342 -104.7644 84° East 476 548 37,000  Level Denver Center
Wed 16:18:23 43.8514 -104.5875 82° East 480 552 37,000  Level Denver Center
Wed 16:19:25 43.8681 -104.3844 83° East 476 548 37,000  Level Denver Center
Wed 16:20:27 43.8822 -104.2117 83° East 471 542 37,000  Level Denver Center
Wed 16:21:29 43.8994 -104.0067 83° East 477 549 37,000  Level Denver Center
Wed 16:22:31 43.9133 -103.8331 84° East 475 547 37,000  Level Denver Center
Wed 16:23:33 43.9303 -103.6297 83° East 473 544 37,000  Level Denver Center
Wed 16:24:36 43.9433 -103.4514 84° East 478 550 37,000  Level Denver Center
Wed 16:25:38 43.9606 -103.2503 83° East 473 544 37,000  Level Denver Center
Wed 16:26:40 43.9742 -103.0736 84° East 477 549 37,000  Level Denver Center
Wed 16:27:42 43.9750 -102.8669 90° East 479 551 37,000  Level Denver Center
Wed 16:28:44 43.9678 -102.6756 93° East 480 552 37,000  Level Denver Center
Wed 16:29:46 43.9603 -102.4894 93° East 485 558 37,000  Level Denver Center
Wed 16:30:48 43.9525 -102.3039 93° East 483 556 37,000  Level Denver Center
Wed 16:31:50 43.9458 -102.1175 93° East 484 557 37,000  Level Denver Center
Wed 16:32:52 43.9389 -101.9331 93° East 483 556 37,000  Level Denver Center
Wed 16:33:54 43.9308 -101.7489 93° East 480 552 37,000  Level Denver Center
Wed 16:34:56 43.9294 -101.5378 90° East 467 537 37,000  Level Denver Center
Wed 16:36:00 43.9200 -101.3547 94° East 474 545 37,000  Level Minneapolis Center
Wed 16:37:02 43.9144 -101.1800 92° East 467 537 37,000  Level Minneapolis Center
Wed 16:38:04 43.9075 -101.0000 93° East 469 540 37,000  Level Minneapolis Center
Wed 16:39:06 43.8994 -100.8208 94° East 468 539 37,000  Level Minneapolis Center
Wed 16:40:08 43.8900 -100.6069 93° East 467 537 37,000  Level Minneapolis Center
Wed 16:41:10 43.8803 -100.4253 94° East 471 542 37,000  Level Minneapolis Center
Wed 16:42:12 43.8719 -100.2475 94° East 468 539 37,000  Level Minneapolis Center
Wed 16:43:14 43.8636 -100.0692 94° East 467 537 37,000  Level Minneapolis Center
Wed 16:44:16 43.8550 -99.8903 94° East 467 537 37,000  Level Minneapolis Center
Wed 16:45:18 43.8431 -99.6756 94° East 469 540 37,000  Level Minneapolis Center
Wed 16:46:21 43.8322 -99.4978 95° East 467 537 37,000  Level Minneapolis Center
Wed 16:51:45 43.7754 -98.5225 95° East 467 537 37,000  Level FlightAware ADS-B
Wed 16:52:15 43.7696 -98.4333 95° East 467 537 37,000  Level FlightAware ADS-B
Wed 16:52:50 43.7628 -98.3297 95° East 466 536 37,000  Level FlightAware ADS-B
Wed 16:53:20 43.7569 -98.2400 95° East 466 536 37,000  Level FlightAware ADS-B
Wed 16:54:09 43.7472 -98.0971 95° East 466 536 37,000  Level FlightAware ADS-B
Wed 16:54:46 43.7395 -97.9863 95° East 469 540 37,000  Level FlightAware ADS-B
Wed 16:55:17 43.7331 -97.8945 95° East 472 543 37,000  Level FlightAware ADS-B
Wed 16:56:12 43.7197 -97.7285 96° East 474 545 37,000  Level FlightAware ADS-B
Wed 16:56:42 43.7122 -97.6379 97° East 475 547 37,000  Level FlightAware ADS-B
Wed 16:57:25 43.7017 -97.5104 96° East 475 547 37,000 333 Level FlightAware ADS-B
Wed 16:58:12 43.6899 -97.3693 97° East 475 547 37,500 779 Climbing FlightAware ADS-B
Wed 16:58:42 43.6822 -97.2786 97° East 474 545 38,000 1,000 Climbing FlightAware ADS-B
Wed 16:59:12 43.6746 -97.1885 97° East 471 542 38,500 885 Climbing FlightAware ADS-B
Wed 16:59:43 43.6668 -97.0980 97° East 471 542 38,900 492 Climbing FlightAware ADS-B
Wed 17:00:13 43.6588 -97.0060 97° East 470 541 39,000 97 Climbing FlightAware ADS-B
Wed 17:00:45 43.6507 -96.9132 97° East 468 539 39,000  Level FlightAware ADS-B
Wed 17:01:44 43.6350 -96.7390 97° East 468 539 39,000  Level FlightAware ADS-B
Wed 17:02:00 43.6309 -96.6917 97° East 468 539 39,000  Level FlightAware ADS-B
Wed 17:02:30 43.6228 -96.6024 97° East 469 540 39,000  Level FlightAware ADS-B
Wed 17:03:00 43.6147 -96.5131 97° East 469 540 39,000  Level FlightAware ADS-B
Wed 17:03:31 43.6063 -96.4214 97° East 469 540 39,000  Level FlightAware ADS-B
Wed 17:04:01 43.5980 -96.3326 97° East 469 540 39,000  Level FlightAware ADS-B
Wed 17:04:32 43.5895 -96.2419 97° East 468 539 39,000  Level FlightAware ADS-B
Wed 17:05:02 43.5810 -96.1520 97° East 468 539 39,000  Level FlightAware ADS-B
Wed 17:05:33 43.5725 -96.0630 97° East 468 539 39,000  Level FlightAware ADS-B
Wed 17:06:03 43.5638 -95.9720 97° East 468 539 39,000  Level FlightAware ADS-B
Wed 17:06:34 43.5551 -95.8829 98° East 468 539 39,000  Level FlightAware ADS-B
Wed 17:07:04 43.5463 -95.7925 98° East 469 540 39,000  Level FlightAware ADS-B
Wed 17:07:35 43.5374 -95.7024 98° East 469 540 39,000  Level FlightAware ADS-B
Wed 17:08:05 43.5286 -95.6138 98° East 469 540 39,000  Level FlightAware ADS-B
Wed 17:08:36 43.5194 -95.5225 98° East 469 540 39,000  Level FlightAware ADS-B
Wed 17:09:06 43.5104 -95.4339 98° East 471 542 39,000  Level FlightAware ADS-B
Wed 17:09:37 43.5010 -95.3413 98° East 472 543 39,000  Level FlightAware ADS-B
Wed 17:10:08 43.4915 -95.2485 98° East 472 543 39,000  Level FlightAware ADS-B
Wed 17:10:39 43.4820 -95.1569 98° East 472 543 39,000  Level FlightAware ADS-B
Wed 17:11:11 43.4723 -95.0638 98° East 472 543 39,000  Level FlightAware ADS-B
Wed 17:12:18 43.4510 -94.8650 98° East 471 542 39,000  Level FlightAware ADS-B
Wed 17:13:02 43.4370 -94.7370 99° East 470 541 39,000  Level FlightAware ADS-B
Wed 17:13:38 43.4260 -94.6270 98° East 469 540 39,000  Level FlightAware ADS-B
Wed 17:14:24 43.4110 -94.4950 99° East 468 539 39,000  Level FlightAware ADS-B
Wed 17:15:04 43.3980 -94.3760 99° East 467 537 39,000  Level FlightAware ADS-B
Wed 17:15:39 43.3870 -94.2750 98° East 466 536 39,000  Level FlightAware ADS-B
Wed 17:16:20 43.3730 -94.1550 99° East 466 536 39,000  Level FlightAware ADS-B
Wed 17:17:04 43.3590 -94.0270 99° East 466 536 39,000  Level FlightAware ADS-B
Wed 17:17:36 43.3480 -93.9330 99° East 466 536 39,000  Level FlightAware ADS-B
Wed 17:18:16 43.3340 -93.8140 99° East 465 535 39,000  Level FlightAware ADS-B
Wed 17:18:54 43.3220 -93.7130 99° East 465 535 39,000  Level FlightAware ADS-B
Wed 17:19:38 43.3060 -93.5790 99° East 465 535 39,000  Level FlightAware ADS-B
Wed 17:20:17 43.2930 -93.4650 99° East 466 536 39,000  Level FlightAware ADS-B
Wed 17:21:02 43.2770 -93.3330 99° East 466 536 39,000  Level FlightAware ADS-B
Wed 17:21:42 43.2630 -93.2180 99° East 465 535 39,000  Level FlightAware ADS-B
Wed 17:22:25 43.2480 -93.0930 99° East 465 535 39,000  Level FlightAware ADS-B
Wed 17:23:06 43.2330 -92.9740 100° East 464 534 39,000  Level FlightAware ADS-B
Wed 17:23:47 43.2180 -92.8560 100° East 464 534 39,000  Level FlightAware ADS-B
Wed 17:24:32 43.2020 -92.7260 100° East 463 533 39,000  Level FlightAware ADS-B
Wed 17:25:12 43.1870 -92.6090 100° East 463 533 39,000  Level FlightAware ADS-B
Wed 17:25:57 43.1710 -92.4800 100° East 463 533 39,000  Level FlightAware ADS-B
Wed 17:26:34 43.1570 -92.3760 100° East 463 533 39,000  Level FlightAware ADS-B
Wed 17:27:18 43.1400 -92.2450 100° East 463 533 39,000  Level FlightAware ADS-B
Wed 17:28:00 43.1250 -92.1260 100° East 464 534 39,000  Level FlightAware ADS-B
Wed 17:28:44 43.1080 -91.9970 100° East 465 535 39,000  Level FlightAware ADS-B
Wed 17:29:21 43.0930 -91.8910 101° East 466 536 39,000  Level FlightAware ADS-B
Wed 17:30:08 43.0750 -91.7550 100° East 466 536 39,000  Level FlightAware ADS-B
Wed 17:30:48 43.0590 -91.6400 101° East 468 539 39,000  Level FlightAware ADS-B
Wed 17:31:28 43.0440 -91.5250 100° East 469 540 39,000  Level FlightAware ADS-B
Wed 17:32:12 43.0260 -91.3960 101° East 471 542 39,000  Level FlightAware ADS-B
Wed 17:32:54 43.0090 -91.2740 101° East 471 542 39,000  Level FlightAware ADS-B
Wed 17:33:38 42.9910 -91.1480 101° East 472 543 39,000  Level FlightAware ADS-B
Wed 17:34:13 42.9770 -91.0480 101° East 472 543 39,000  Level FlightAware ADS-B
Wed 17:34:53 42.9600 -90.9280 101° East 472 543 39,000  Level FlightAware ADS-B
Wed 17:35:34 42.9420 -90.8060 101° East 472 543 39,000  Level FlightAware ADS-B
Wed 17:36:14 42.9250 -90.6900 101° East 474 545 39,000  Level FlightAware ADS-B
Wed 17:36:50 42.9100 -90.5860 101° East 475 547 39,000  Level FlightAware ADS-B
Wed 17:37:18 42.8980 -90.5010 101° East 475 547 39,000  Level FlightAware ADS-B
Wed 17:38:03 42.8780 -90.3680 102° East 475 547 39,000  Level FlightAware ADS-B
Wed 17:38:58 42.8550 -90.2120 101° East 475 547 39,000  Level FlightAware ADS-B
Wed 17:39:42 42.8350 -90.0810 102° East 475 547 39,000  Level FlightAware ADS-B
Wed 17:40:22 42.8170 -89.9650 102° East 475 547 39,000  Level FlightAware ADS-B
Wed 17:40:48 42.8060 -89.8870 101° East 475 547 39,000  Level FlightAware ADS-B
Wed 17:41:24 42.7900 -89.7820 102° East 475 547 39,000  Level FlightAware ADS-B
Wed 17:42:08 42.7700 -89.6540 102° East 474 545 39,000  Level FlightAware ADS-B
Wed 17:42:52 42.7500 -89.5260 102° East 473 544 39,000  Level FlightAware ADS-B
Wed 17:43:25 42.7350 -89.4290 102° East 472 543 39,000  Level FlightAware ADS-B
Wed 17:44:06 42.7160 -89.3110 102° East 469 540 39,000  Level FlightAware ADS-B
Wed 17:44:48 42.6970 -89.1900 102° East 468 539 39,000  Level FlightAware ADS-B
Wed 17:45:32 42.6770 -89.0650 102° East 466 536 39,000  Level FlightAware ADS-B
Wed 17:46:12 42.6580 -88.9500 103° East 466 536 39,000  Level FlightAware ADS-B
Wed 17:46:57 42.6370 -88.8220 103° East 465 535 39,000  Level FlightAware ADS-B
Wed 17:47:37 42.6190 -88.7080 102° East 464 534 39,000  Level FlightAware ADS-B
Wed 17:48:21 42.5980 -88.5840 103° East 465 535 39,000  Level FlightAware ADS-B
Wed 17:49:01 42.5790 -88.4690 103° East 466 536 39,000  Level FlightAware ADS-B
Wed 17:49:43 42.5590 -88.3510 103° East 467 537 39,000  Level FlightAware ADS-B
Wed 17:50:25 42.5400 -88.2340 102° East 467 537 39,000  Level FlightAware ADS-B
Wed 17:51:09 42.5190 -88.1110 103° East 467 537 39,000  Level FlightAware ADS-B
Wed 17:51:49 42.5030 -87.9970 101° East 469 540 39,000  Level FlightAware ADS-B
Wed 17:52:25 42.4990 -87.8870 93° East 470 541 39,000  Level FlightAware ADS-B
Wed 17:53:07 42.4990 -87.7670 90° East 470 541 39,000  Level FlightAware ADS-B
Wed 17:53:51 42.5000 -87.6310 89° East 470 541 39,000  Level FlightAware ADS-B
Wed 17:54:31 42.4990 -87.5190 91° East 470 541 39,000  Level FlightAware ADS-B
Wed 17:55:13 42.4990 -87.3920 90° East 470 541 39,000  Level FlightAware ADS-B
Wed 17:56:10 42.4980 -87.2280 90° East 470 541 39,000  Level FlightAware ADS-B
Wed 17:56:50 42.4970 -87.1130 91° East 471 542 39,000  Level FlightAware ADS-B
Wed 17:57:26 42.4960 -87.0010 91° East 472 543 39,000  Level FlightAware ADS-B
Wed 17:58:07 42.4950 -86.8800 91° East 473 544 39,000  Level FlightAware ADS-B
Wed 17:58:50 42.4940 -86.7560 91° East 474 545 39,000  Level FlightAware ADS-B
Wed 17:59:32 42.4920 -86.6300 91° East 475 547 39,000  Level FlightAware ADS-B
Wed 18:00:16 42.4910 -86.5020 91° East 475 547 39,000  Level FlightAware ADS-B
Wed 18:00:56 42.4890 -86.3840 91° East 476 548 39,000  Level FlightAware ADS-B
Wed 18:01:34 42.4870 -86.2700 91° East 477 549 39,000  Level FlightAware ADS-B
Wed 18:02:19 42.4850 -86.1320 91° East 477 549 39,000  Level FlightAware ADS-B
Wed 18:03:03 42.4830 -86.0090 91° East 478 550 39,000  Level FlightAware ADS-B
Wed 18:03:44 42.4810 -85.8820 91° East 478 550 39,000  Level FlightAware ADS-B
Wed 18:04:24 42.4790 -85.7650 91° East 478 550 39,000  Level FlightAware ADS-B
Wed 18:05:10 42.4760 -85.6190 92° East 477 549 39,000  Level FlightAware ADS-B
Wed 18:05:50 42.4740 -85.5030 91° East 477 549 39,000  Level FlightAware ADS-B
Wed 18:06:26 42.4710 -85.3940 92° East 477 549 39,000  Level FlightAware ADS-B
Wed 18:07:06 42.4680 -85.2740 92° East 477 549 39,000  Level FlightAware ADS-B
Wed 18:07:48 42.4650 -85.1500 92° East 477 549 39,000  Level FlightAware ADS-B
Wed 18:08:39 42.4630 -85.0130 91° East 477 549 39,000  Level FlightAware ADS-B
Wed 18:09:34 42.4510 -84.8430 95° East 478 550 39,000  Level FlightAware ADS-B
Wed 18:10:14 42.4440 -84.7200 94° East 480 552 39,000  Level FlightAware ADS-B
Wed 18:10:59 42.4370 -84.5810 94° East 481 554 39,000  Level FlightAware ADS-B
Wed 18:11:37 42.4330 -84.5170 95° East 481 554 39,000  Level FlightAware ADS-B
Wed 18:12:01 42.4270 -84.3970 94° East 480 552 39,000  Level FlightAware ADS-B
Wed 18:12:39 42.4200 -84.2820 95° East 482 555 39,000  Level FlightAware ADS-B
Wed 18:13:19 42.4130 -84.1630 95° East 482 555 39,000  Level FlightAware ADS-B
Wed 18:14:05 42.4050 -84.0230 94° East 481 554 39,000  Level FlightAware ADS-B
Wed 18:14:45 42.3980 -83.9040 95° East 483 556 39,000  Level FlightAware ADS-B
Wed 18:15:29 42.3900 -83.7740 95° East 482 555 39,000  Level FlightAware ADS-B
Wed 18:16:09 42.3820 -83.6530 95° East 480 552 39,000  Level FlightAware ADS-B
Wed 18:16:53 42.3740 -83.5210 95° East 478 550 39,000  Level FlightAware ADS-B
Wed 18:17:25 42.3660 -83.4260 96° East 478 550 39,000  Level FlightAware ADS-B
Wed 18:18:09 42.3410 -83.3030 105° East 477 549 39,000  Level FlightAware ADS-B
Wed 18:18:49 42.3150 -83.1880 107° East 478 550 39,000  Level FlightAware ADS-B
Wed 18:19:25 42.2920 -83.0850 107° East 479 551 39,000  Level FlightAware ADS-B
Wed 18:22:45 42.2030 -82.5660 103° East 483 556 39,000  Level FlightAware ADS-B
Wed 18:23:25 42.1960 -82.4270 94° East 484 557 39,000  Level FlightAware ADS-B
Wed 18:24:06 42.1890 -82.2970 94° East 483 556 39,000  Level FlightAware ADS-B
Wed 18:24:51 42.1800 -82.1260 94° East 482 555 39,000  Level FlightAware ADS-B
Wed 18:25:36 42.1730 -81.9940 94° East 482 555 39,000  Level FlightAware ADS-B
Wed 18:26:29 42.1640 -81.8330 94° East 480 552 39,000  Level FlightAware ADS-B
Wed 18:27:13 42.1560 -81.6990 95° East 480 552 39,000  Level FlightAware ADS-B
Wed 18:27:53 42.1500 -81.5820 94° East 479 551 39,000  Level FlightAware ADS-B
Wed 18:28:37 42.1420 -81.4490 95° East 477 549 39,000  Level FlightAware ADS-B
Wed 18:29:13 42.1350 -81.3450 95° East 476 548 39,000  Level FlightAware ADS-B
Wed 18:29:53 42.1280 -81.2250 94° East 474 545 39,000  Level FlightAware ADS-B
Wed 18:30:37 42.1200 -81.0970 95° East 473 544 39,000  Level FlightAware ADS-B
Wed 18:31:13 42.1130 -80.9930 95° East 473 544 39,000  Level FlightAware ADS-B
Wed 18:31:53 42.1050 -80.8740 95° East 472 543 39,000  Level FlightAware ADS-B
Wed 18:32:29 42.0980 -80.7730 95° East 472 543 39,000  Level FlightAware ADS-B
Wed 18:33:27 42.0870 -80.6040 95° East 474 545 39,000  Level FlightAware ADS-B
Wed 18:34:07 42.0790 -80.4870 95° East 474 545 39,000  Level FlightAware ADS-B
Wed 18:34:37 42.0730 -80.4000 95° East 474 545 39,000  Level FlightAware ADS-B
Wed 18:35:22 42.0640 -80.2710 95° East 475 547 39,000  Level FlightAware ADS-B
Wed 18:36:07 42.0540 -80.1350 96° East 475 547 39,000  Level FlightAware ADS-B
Wed 18:36:37 42.0480 -80.0480 95° East 475 547 39,000  Level FlightAware ADS-B
Wed 18:37:22 42.0380 -79.9220 96° East 474 545 39,000  Level FlightAware ADS-B
Wed 18:38:02 42.0300 -79.8070 95° East 474 545 39,000  Level FlightAware ADS-B
Wed 18:38:37 42.0220 -79.7060 96° East 475 547 39,000  Level FlightAware ADS-B
Wed 18:39:21 42.0110 -79.5620 96° East 475 547 39,000  Level FlightAware ADS-B
Wed 18:40:01 42.0020 -79.4430 96° East 476 548 39,000  Level FlightAware ADS-B
Wed 18:40:45 41.9910 -79.3130 96° East 477 549 39,000  Level FlightAware ADS-B
Wed 18:41:25 41.9820 -79.1970 96° East 478 550 39,000  Level FlightAware ADS-B
Wed 18:42:09 41.9720 -79.0690 96° East 480 552 39,000  Level FlightAware ADS-B
Wed 18:42:50 41.9620 -78.9480 96° East 481 554 39,000  Level FlightAware ADS-B
Wed 18:43:33 41.9510 -78.8220 97° East 482 555 39,000  Level FlightAware ADS-B
Wed 18:44:13 41.9400 -78.6980 97° East 484 557 39,000  Level FlightAware ADS-B
Wed 18:44:57 41.9290 -78.5680 96° East 484 557 39,000  Level FlightAware ADS-B
Wed 18:45:37 41.9190 -78.4490 96° East 486 559 39,000  Level FlightAware ADS-B
Wed 18:46:19 41.9080 -78.3220 97° East 488 562 39,000  Level FlightAware ADS-B
Wed 18:46:59 41.8970 -78.2060 97° East 488 562 39,000  Level FlightAware ADS-B
Wed 18:47:45 41.8850 -78.0710 97° East 489 563 39,000  Level FlightAware ADS-B
Wed 18:48:26 41.8730 -77.9420 97° East 490 564 39,000  Level FlightAware ADS-B
Wed 18:49:10 41.8530 -77.8100 101° East 489 563 39,000  Level FlightAware ADS-B
Wed 18:49:50 41.8260 -77.7010 108° East 488 562 39,000  Level FlightAware ADS-B
Wed 18:50:23 41.8000 -77.6030 110° East 488 562 39,000  Level FlightAware ADS-B
Wed 18:51:07 41.7660 -77.4770 110° East 487 560 39,000  Level FlightAware ADS-B
Wed 18:51:51 41.7320 -77.3520 110° East 488 562 39,000  Level FlightAware ADS-B
Wed 18:52:27 41.7050 -77.2490 109° East 487 560 39,000  Level FlightAware ADS-B
Wed 18:53:07 41.6750 -77.1360 110° East 487 560 39,000  Level FlightAware ADS-B
Wed 18:53:40 41.6493 -77.0426 110° East 489 563 39,000  Level FlightAware ADS-B
Wed 18:54:16 41.6213 -76.9396 110° East 489 563 39,000  Level FlightAware ADS-B
Wed 18:54:47 41.5979 -76.8536 110° East 488 562 39,000  Level FlightAware ADS-B
Wed 18:55:19 41.5730 -76.7625 110° East 487 560 39,000  Level FlightAware ADS-B
Wed 18:55:49 41.5498 -76.6778 110° East 486 559 39,000  Level FlightAware ADS-B
Wed 18:56:22 41.5245 -76.5861 110° East 486 559 39,000  Level FlightAware ADS-B
Wed 18:56:56 41.4979 -76.4897 110° East 486 559 39,000  Level FlightAware ADS-B
Wed 18:57:30 41.4716 -76.3947 110° East 484 557 39,000  Level FlightAware ADS-B
Wed 18:58:01 41.4480 -76.3098 110° East 482 555 39,000  Level FlightAware ADS-B
Wed 18:58:31 41.4247 -76.2263 110° East 480 552 39,000 -871 Level FlightAware ADS-B
Wed 18:59:03 41.4000 -76.1387 111° Southeast 479 551 38,100 -2,250 Descending FlightAware ADS-B
Wed 18:59:35 41.3750 -76.0496 110° East 482 555 36,600 -2,813 Descending FlightAware ADS-B
Wed 19:00:07 41.3500 -75.9609 111° Southeast 483 556 35,100 -2,952 Descending FlightAware ADS-B
Wed 19:00:38 41.3257 -75.8755 111° Southeast 486 559 33,500 -3,194 Descending FlightAware ADS-B
Wed 19:01:09 41.3011 -75.7886 111° Southeast 490 564 31,800 -3,474 Descending FlightAware ADS-B
Wed 19:01:35 41.2795 -75.7138 111° Southeast 492 566 30,200 -3,684 Descending FlightAware ADS-B
Wed 19:02:06 41.2527 -75.6289 113° Southeast 495 570 28,300 -3,333 Descending FlightAware ADS-B
Wed 19:02:38 41.2233 -75.5402 114° Southeast 488 562 26,700 -2,954 Descending FlightAware ADS-B
Wed 19:03:11 41.1928 -75.4492 114° Southeast 480 552 25,100 -2,857 Descending FlightAware ADS-B
Wed 19:03:41 41.1660 -75.3695 114° Southeast 472 543 23,700 -2,000 Descending FlightAware ADS-B
Wed 19:04:11 41.1394 -75.2907 114° Southeast 469 540 23,100 -689 Descending FlightAware ADS-B
Wed 19:04:42 41.1122 -75.2105 114° Southeast 465 535 23,000 -98 Descending FlightAware ADS-B
Wed 19:05:12 41.0856 -75.1319 114° Southeast 463 533 23,000  Level FlightAware ADS-B
Wed 19:05:44 41.0582 -75.0515 114° Southeast 465 535 23,000  Level FlightAware ADS-B
Wed 19:06:18 41.0280 -74.9627 114° Southeast 464 534 23,000  Level FlightAware ADS-B
Wed 19:06:41 41.0088 -74.9042 113° Southeast 461 531 23,000  Level FlightAware ADS-B
Wed 19:06:59 40.9969 -74.8552 108° East 460 529 23,000  Level FlightAware ADS-B
Wed 19:07:17 40.9890 -74.8057 102° East 459 528 23,000  Level FlightAware ADS-B
Wed 19:07:47 40.9792 -74.7221 99° East 459 528 23,000 -923 Level FlightAware ADS-B
Wed 19:08:22 40.9692 -74.6264 98° East 455 524 22,000 -2,123 Descending FlightAware ADS-B
Wed 19:08:52 40.9604 -74.5432 98° East 448 516 20,700 -1,900 Descending FlightAware ADS-B
Wed 19:09:22 40.9518 -74.4640 98° East 425 489 20,100 -1,161 Descending FlightAware ADS-B
Wed 19:09:54 40.9432 -74.3859 98° East 402 463 19,500 -1,031 Descending FlightAware ADS-B
Wed 19:10:26 40.9346 -74.3093 98° East 378 435 19,000 -484 Descending FlightAware ADS-B
Wed 19:10:56 40.9272 -74.2440 99° East 350 403 19,000  Level FlightAware ADS-B
Wed 19:11:28 40.9200 -74.1790 98° East 342 394 19,000 -146 Level FlightAware ADS-B
Wed 19:11:37 40.9175 -74.1608 100° East 341 392 18,900 -947 Descending FlightAware ADS-B
Wed 19:11:47 40.9130 -74.1406 106° East 342 394 18,700 -1,200 Descending FlightAware ADS-B
Wed 19:11:52 40.9099 -74.1312 114° Southeast 343 395 18,600 -1,333 Descending FlightAware ADS-B
Wed 19:11:56 40.9068 -74.1237 119° Southeast 343 395 18,500 -1,333 Descending FlightAware ADS-B
Wed 19:12:01 40.9020 -74.1144 124° Southeast 343 395 18,400 -1,286 Descending FlightAware ADS-B
Wed 19:12:10 40.8922 -74.1003 133° Southeast 344 396 18,200 -1,636 Descending FlightAware ADS-B
Wed 19:12:12 40.8904 -74.0983 140° Southeast 344 396 18,100 -2,000 Descending FlightAware ADS-B
Wed 19:12:16 40.8845 -74.0922 142° Southeast 344 396 18,000 -1,000 Descending FlightAware ADS-B
Wed 19:12:18 40.8820 -74.0899 145° Southeast 345 397 18,000 -1,333 Level FlightAware ADS-B
Wed 19:12:25 40.8725 -74.0829 151° Southeast 345 397 17,800 -1,800 Descending FlightAware ADS-B
Wed 19:12:28 40.8676 -74.0801 157° South 345 397 17,700 -1,846 Descending FlightAware ADS-B
Wed 19:12:38 40.8532 -74.0742 163° South 346 398 17,400 -1,935 Descending FlightAware ADS-B
Wed 19:12:59 40.8203 -74.0642 167° South 349 402 16,700 -1,935 Descending FlightAware ADS-B
Wed 19:13:09 40.8035 -74.0593 168° South 349 402 16,400 -1,600 Descending FlightAware ADS-B
Wed 19:13:29 40.7724 -74.0502 168° South 346 398 15,900 -1,091 Descending FlightAware ADS-B
Wed 19:13:42 40.7521 -74.0444 168° South 342 394 15,800 -194 Descending FlightAware ADS-B
Wed 19:14:00 40.7252 -74.0366 168° South 340 391 15,800 -529 Level FlightAware ADS-B
Wed 19:14:16 40.7007 -74.0295 168° South 337 388 15,500 -1,355 Descending FlightAware ADS-B
Wed 19:14:31 40.6777 -74.0228 168° South 335 386 15,100 -1,565 Descending FlightAware ADS-B
Wed 19:15:02 40.6310 -74.0091 167° South 332 382 14,300 -1,435 Descending FlightAware ADS-B
Wed 19:15:17 40.6093 -74.0028 168° South 335 386 14,000 -1,235 Descending FlightAware ADS-B
Wed 19:15:36 40.5804 -73.9944 168° South 328 377 13,600 -1,444 Descending FlightAware ADS-B
Wed 19:16:11 40.5303 -73.9800 168° South 320 368 12,700 -1,569 Descending FlightAware ADS-B
Wed 19:16:41 40.4872 -73.9681 168° South 313 360 11,900 -1,957 Descending FlightAware ADS-B
Wed 19:16:57 40.4642 -73.9600 165° South 309 356 11,200 -2,444 Descending FlightAware ADS-B
Wed 19:17:08 40.4514 -73.9500 149° Southeast 303 349 10,800 -2,250 Descending FlightAware ADS-B
Wed 19:17:13 40.4452 -73.9438 143° Southeast 301 346 10,600 -2,455 Descending FlightAware ADS-B
Wed 19:17:30 40.4272 -73.9237 140° Southeast 299 344 9,900 -2,471 Descending FlightAware ADS-B
Wed 19:17:47 40.4097 -73.9040 139° Southeast 298 343 9,200 -2,545 Descending FlightAware ADS-B
Wed 19:18:03 40.3934 -73.8849 138° Southeast 294 338 8,500 -2,323 Descending FlightAware ADS-B
Wed 19:18:18 40.3782 -73.8668 138° Southeast 292 336 8,000 -2,323 Descending FlightAware ADS-B
Wed 19:18:34 40.3624 -73.8477 137° Southeast 292 336 7,300 -2,294 Descending FlightAware ADS-B
Wed 19:18:52 40.3441 -73.8257 137° Southeast 294 338 6,700 -1,588 Descending FlightAware ADS-B
Wed 19:19:08 40.3290 -73.8075 137° Southeast 293 337 6,400 -1,304 Descending FlightAware ADS-B
Wed 19:19:38 40.2989 -73.7709 137° Southeast 290 334 5,700 -1,269 Descending FlightAware ADS-B
Wed 19:20:00 40.2797 -73.7417 131° Southeast 289 333 5,300 -1,286 Descending FlightAware ADS-B
Wed 19:20:06 40.2769 -73.7318 110° East 287 330 5,100 -1,317 Descending FlightAware ADS-B
Wed 19:20:41 40.2870 -73.6790 76° East 274 315 4,400 -1,277 Descending FlightAware ADS-B
Wed 19:20:53 40.3005 -73.6664 35° Northeast 279 321 4,100 -643 Descending FlightAware ADS-B
Wed 19:21:37 40.3480 -73.6320 29° Northeast 273 314 3,800 -254 Descending FlightAware ADS-B
Wed 19:22:04 40.3780 -73.6100 29° Northeast 273 314 3,800  Level FlightAware ADS-B
Wed 19:22:26 40.4020 -73.5920 30° Northeast 272 313 3,800  Level FlightAware ADS-B
Wed 19:22:53 40.4300 -73.5710 30° Northeast 272 313 3,800  Level FlightAware ADS-B
Wed 19:23:20 40.4610 -73.5490 28° Northeast 273 314 3,800  Level FlightAware ADS-B
Wed 19:23:50 40.4950 -73.5240 29° Northeast 274 315 3,800  Level FlightAware ADS-B
Wed 19:24:14 40.5220 -73.5040 29° Northeast 274 315 3,800  Level FlightAware ADS-B
Wed 19:24:22 40.5310 -73.5000 19° North 269 310 3,800  Level FlightAware ADS-B
Wed 19:24:52 40.5660 -73.4910 11° North 239 275 3,800  Level FlightAware ADS-B
Wed 19:25:20 40.5950 -73.4850 North 228 262 3,800  Level FlightAware ADS-B
Wed 19:25:47 40.6220 -73.4790 10° North 226 260 3,800  Level FlightAware ADS-B
Wed 19:26:16 40.6530 -73.4720 10° North 228 262 3,800 82 Level FlightAware ADS-B
Wed 19:27:00 40.6920 -73.4810 350° North 189 217 3,900  Climbing FlightAware ADS-B
Wed 19:27:11 40.7020 -73.4870 336° Northwest 189 217 3,800 -150 Descending FlightAware ADS-B
Wed 19:27:40 40.7250 -73.4980 340° North 191 220 3,800  Level FlightAware ADS-B
Wed 19:28:09 40.7500 -73.5100 340° North 189 217 3,800 -105 Level FlightAware ADS-B
Wed 19:28:37 40.7730 -73.5220 338° Northwest 188 216 3,700 -517 Descending FlightAware ADS-B
Wed 19:29:07 40.7930 -73.5410 324° Northwest 182 209 3,300 -889 Descending FlightAware ADS-B
Wed 19:29:31 40.8020 -73.5630 298° West 183 211 2,900 -600 Descending FlightAware ADS-B
Wed 19:29:57 40.8100 -73.5910 291° West 185 213 2,800 -300 Descending FlightAware ADS-B
Wed 19:30:11 40.8050 -73.6060 246° West 177 204 2,700 -652 Descending FlightAware ADS-B
Wed 19:30:43 40.7900 -73.6330 234° Southwest 168 193 2,300 -545 Descending FlightAware ADS-B
Wed 19:30:55 40.7850 -73.6420 234° Southwest 161 185 2,300 -600 Level FlightAware ADS-B
Wed 19:31:23 40.7680 -73.6590 217° Southwest 156 180 1,900 -536 Descending FlightAware ADS-B
Wed 19:31:51 40.7510 -73.6730 212° Southwest 160 184 1,800 -105 Descending FlightAware ADS-B
Wed 19:32:20 40.7320 -73.6870 209° Southwest 159 183 1,800 -273 Level FlightAware ADS-B
Wed 19:32:35 40.7230 -73.6940 211° Southwest 164 189 1,600 -878 Descending FlightAware ADS-B
Wed 19:33:01 40.7060 -73.7080 212° Southwest 151 174 1,200 -750 Descending FlightAware ADS-B
Wed 19:33:31 40.6890 -73.7210 210° Southwest 130 150 900 -714 Descending FlightAware ADS-B
Wed 19:33:43 40.6830 -73.7250 207° Southwest 124 143 700 -750 Descending FlightAware ADS-B
Wed 19:34:11 40.6690 -73.7360 211° Southwest 128 147 400 -533 Descending FlightAware ADS-B
Wed 19:34:28 40.6610 -73.7430 214° Southwest 126 145 300 -353 Descending FlightAware ADS-B
Wed 19:34:55 40.6470 -73.7530 208° Southwest 128 147 -667 Descending FlightAware ADS-B
Wed 19:35:19 40.6360 -73.7620 212° Southwest 92 106  Level FlightAware ADS-B
Wed 19:35:53 40.6300 -73.7680 217° Southwest 32 37  Level FlightAware ADS-B
Wed 19:36:03 40.6290 -73.7690 217° Southwest 19 22  Level FlightAware ADS-B
Wed 19:36:25 40.6310 -73.7700 339° North 19 22  Level FlightAware ADS-B
Wed 19:36:41 40.6320 -73.7690 37° Northeast 21 24  Level FlightAware ADS-B

Login

Don't have an account? Register now (free) for customized features, flight alerts, and more!